Terminal Aerodrome Forecast
Issued by NWS

Home | Current Version | Previous Version | Graphics & Text | Print | Product List | Glossary On
Versions: 1 2 3 4 5 6 7 8 9 10 11 12 13 14 15 16 17
000
FTUS43 KABR 282300
TAFATY
TAF
KATY 282323Z 2900/2924 01007KT P6SM FEW060
     FM290200 VRB04KT P6SM SKC
     FM291600 33004KT P6SM FEW050=

USA.gov is the U.S. government's official web portal to all federal, state and local government web resources and services.